sensor_id;sensor_type;location;lat;lon;timestamp;pressure;altitude;pressure_sealevel;temperature;humidity
54870;BME280;40756;-37.950;145.008;2023-04-01T00:01:38;101796.93;;;14.64;43.32
54870;BME280;40756;-37.950;145.008;2023-04-01T00:04:07;101796.46;;;14.44;44.96
54870;BME280;40756;-37.950;145.008;2023-04-01T00:06:37;101798.30;;;13.72;45.97
54870;BME280;40756;-37.950;145.008;2023-04-01T00:09:06;101794.53;;;13.73;45.95
54870;BME280;40756;-37.950;145.008;2023-04-01T00:11:36;101792.78;;;13.80;45.12
54870;BME280;40756;-37.950;145.008;2023-04-01T00:14:06;101795.75;;;14.42;44.23
54870;BME280;40756;-37.950;145.008;2023-04-01T00:16:36;101797.68;;;14.42;43.67
54870;BME280;40756;-37.950;145.008;2023-04-01T00:19:06;101798.28;;;13.90;44.43
54870;BME280;40756;-37.950;145.008;2023-04-01T00:21:36;101802.98;;;14.21;44.04
54870;BME280;40756;-37.950;145.008;2023-04-01T00:24:06;101801.41;;;13.98;44.04
54870;BME280;40756;-37.950;145.008;2023-04-01T00:26:35;101805.41;;;15.48;42.44
54870;BME280;40756;-37.950;145.008;2023-04-01T00:29:05;101811.81;;;14.15;44.88
54870;BME280;40756;-37.950;145.008;2023-04-01T00:31:35;101807.69;;;14.90;42.94
54870;BME280;40756;-37.950;145.008;2023-04-01T00:34:05;101816.73;;;14.15;44.67
54870;BME280;40756;-37.950;145.008;2023-04-01T00:36:34;101806.85;;;14.01;43.97
54870;BME280;40756;-37.950;145.008;2023-04-01T00:39:04;101814.19;;;14.60;42.89
54870;BME280;40756;-37.950;145.008;2023-04-01T00:41:33;101813.14;;;14.10;45.36
54870;BME280;40756;-37.950;145.008;2023-04-01T00:44:22;101807.16;;;14.67;43.50
54870;BME280;40756;-37.950;145.008;2023-04-01T00:46:52;101801.44;;;14.77;44.15
54870;BME280;40756;-37.950;145.008;2023-04-01T00:49:25;101801.86;;;14.73;42.67
54870;BME280;40756;-37.950;145.008;2023-04-01T00:51:57;101804.23;;;15.92;42.43
54870;BME280;40756;-37.950;145.008;2023-04-01T00:54:30;101800.99;;;15.50;42.62
54870;BME280;40756;-37.950;145.008;2023-04-01T00:57:02;101800.22;;;15.43;41.71
54870;BME280;40756;-37.950;145.008;2023-04-01T00:59:35;101804.33;;;15.32;42.10
54870;BME280;40756;-37.950;145.008;2023-04-01T01:02:10;101810.88;;;15.18;43.25
54870;BME280;40756;-37.950;145.008;2023-04-01T01:04:40;101805.81;;;14.60;44.48
54870;BME280;40756;-37.950;145.008;2023-04-01T01:07:22;101807.48;;;14.06;44.64
54870;BME280;40756;-37.950;145.008;2023-04-01T01:10:03;101804.72;;;15.47;43.57
54870;BME280;40756;-37.950;145.008;2023-04-01T01:12:39;101804.87;;;15.37;43.85
54870;BME280;40756;-37.950;145.008;2023-04-01T01:15:15;101804.06;;;15.59;43.30
54870;BME280;40756;-37.950;145.008;2023-04-01T01:17:53;101801.32;;;15.58;43.54
54870;BME280;40756;-37.950;145.008;2023-04-01T01:20:39;101799.73;;;15.56;43.35
54870;BME280;40756;-37.950;145.008;2023-04-01T01:23:37;101803.23;;;15.30;43.22
54870;BME280;40756;-37.950;145.008;2023-04-01T01:26:31;101799.13;;;16.13;41.15
54870;BME280;40756;-37.950;145.008;2023-04-01T01:31:53;101806.87;;;15.23;42.65
54870;BME280;40756;-37.950;145.008;2023-04-01T01:34:30;101799.31;;;15.30;42.89
54870;BME280;40756;-37.950;145.008;2023-04-01T01:37:09;101799.35;;;15.37;42.84
54870;BME280;40756;-37.950;145.008;2023-04-01T01:39:43;101800.77;;;16.59;42.01
54870;BME280;40756;-37.950;145.008;2023-04-01T01:42:17;101806.82;;;14.87;43.02
54870;BME280;40756;-37.950;145.008;2023-04-01T01:44:48;101805.40;;;15.45;42.34
54870;BME280;40756;-37.950;145.008;2023-04-01T01:47:20;101801.49;;;14.68;41.82
54870;BME280;40756;-37.950;145.008;2023-04-01T01:49:51;101791.64;;;15.61;40.82
54870;BME280;40756;-37.950;145.008;2023-04-01T01:52:23;101795.28;;;15.93;39.61
54870;BME280;40756;-37.950;145.008;2023-04-01T01:54:54;101799.57;;;16.12;39.17
54870;BME280;40756;-37.950;145.008;2023-04-01T01:57:26;101796.75;;;16.03;38.83
54870;BME280;40756;-37.950;145.008;2023-04-01T02:00:01;101800.08;;;16.56;39.64
54870;BME280;40756;-37.950;145.008;2023-04-01T02:02:32;101801.82;;;15.62;39.48
54870;BME280;40756;-37.950;145.008;2023-04-01T02:05:02;101801.95;;;15.06;41.06
54870;BME280;40756;-37.950;145.008;2023-04-01T02:07:34;101799.35;;;16.33;41.50
54870;BME280;40756;-37.950;145.008;2023-04-01T02:10:05;101795.31;;;16.88;40.91
54870;BME280;40756;-37.950;145.008;2023-04-01T02:12:35;101800.09;;;16.36;42.10
54870;BME280;40756;-37.950;145.008;2023-04-01T02:15:10;101798.52;;;15.46;44.12
54870;BME280;40756;-37.950;145.008;2023-04-01T02:17:44;101801.02;;;15.69;44.39
54870;BME280;40756;-37.950;145.008;2023-04-01T02:20:17;101800.76;;;15.22;46.59
54870;BME280;40756;-37.950;145.008;2023-04-01T02:22:51;101797.71;;;14.81;47.93
54870;BME280;40756;-37.950;145.008;2023-04-01T02:25:25;101793.19;;;15.02;47.94
54870;BME280;40756;-37.950;145.008;2023-04-01T02:27:58;101795.44;;;14.44;49.06
54870;BME280;40756;-37.950;145.008;2023-04-01T02:30:31;101796.34;;;13.95;47.67
54870;BME280;40756;-37.950;145.008;2023-04-01T02:33:01;101793.37;;;14.06;48.08
54870;BME280;40756;-37.950;145.008;2023-04-01T02:35:34;101790.15;;;14.92;46.35
54870;BME280;40756;-37.950;145.008;2023-04-01T02:38:05;101786.60;;;15.09;46.12
54870;BME280;40756;-37.950;145.008;2023-04-01T02:40:46;101779.64;;;14.47;44.95
54870;BME280;40756;-37.950;145.008;2023-04-01T02:43:16;101775.22;;;15.22;44.61
54870;BME280;40756;-37.950;145.008;2023-04-01T02:45:46;101771.66;;;14.84;43.37
54870;BME280;40756;-37.950;145.008;2023-04-01T02:48:16;101770.26;;;16.16;43.68
54870;BME280;40756;-37.950;145.008;2023-04-01T02:50:46;101768.09;;;16.43;42.93
54870;BME280;40756;-37.950;145.008;2023-04-01T02:53:15;101767.97;;;16.74;41.66
54870;BME280;40756;-37.950;145.008;2023-04-01T02:55:45;101772.11;;;15.32;40.03
54870;BME280;40756;-37.950;145.008;2023-04-01T02:58:14;101762.31;;;15.44;39.73
54870;BME280;40756;-37.950;145.008;2023-04-01T03:00:44;101761.12;;;15.65;40.28
54870;BME280;40756;-37.950;145.008;2023-04-01T03:03:13;101764.14;;;16.04;40.96
54870;BME280;40756;-37.950;145.008;2023-04-01T03:05:43;101761.36;;;15.99;38.91
54870;BME280;40756;-37.950;145.008;2023-04-01T03:08:13;101758.30;;;16.76;39.15
54870;BME280;40756;-37.950;145.008;2023-04-01T03:10:43;101756.83;;;17.51;40.36
54870;BME280;40756;-37.950;145.008;2023-04-01T03:13:12;101754.92;;;16.64;36.53
54870;BME280;40756;-37.950;145.008;2023-04-01T03:15:42;101753.18;;;16.74;35.97
54870;BME280;40756;-37.950;145.008;2023-04-01T03:18:12;101752.05;;;16.71;36.20
54870;BME280;40756;-37.950;145.008;2023-04-01T03:20:41;101752.37;;;17.18;35.80
54870;BME280;40756;-37.950;145.008;2023-04-01T03:23:12;101742.75;;;17.15;36.02
54870;BME280;40756;-37.950;145.008;2023-04-01T03:25:41;101742.20;;;17.06;37.09
54870;BME280;40756;-37.950;145.008;2023-04-01T03:28:11;101744.18;;;17.63;35.61
54870;BME280;40756;-37.950;145.008;2023-04-01T03:30:40;101748.09;;;15.86;36.44
54870;BME280;40756;-37.950;145.008;2023-04-01T03:33:10;101758.45;;;16.03;36.30
54870;BME280;40756;-37.950;145.008;2023-04-01T03:35:40;101755.76;;;15.77;37.07
54870;BME280;40756;-37.950;145.008;2023-04-01T03:38:10;101757.71;;;15.74;36.21
54870;BME280;40756;-37.950;145.008;2023-04-01T03:40:43;101759.80;;;15.37;37.54
54870;BME280;40756;-37.950;145.008;2023-04-01T03:43:13;101757.94;;;15.46;37.62
54870;BME280;40756;-37.950;145.008;2023-04-01T03:45:46;101757.18;;;16.25;37.09
54870;BME280;40756;-37.950;145.008;2023-04-01T03:48:16;101751.79;;;16.07;37.30
54870;BME280;40756;-37.950;145.008;2023-04-01T03:50:46;101746.60;;;15.75;38.24
54870;BME280;40756;-37.950;145.008;2023-04-01T03:53:15;101745.55;;;16.34;37.39
54870;BME280;40756;-37.950;145.008;2023-04-01T03:55:45;101742.00;;;15.61;37.91
54870;BME280;40756;-37.950;145.008;2023-04-01T03:58:15;101743.90;;;16.23;38.65
54870;BME280;40756;-37.950;145.008;2023-04-01T04:00:44;101745.17;;;16.31;37.47
54870;BME280;40756;-37.950;145.008;2023-04-01T04:03:14;101745.89;;;16.53;38.51
54870;BME280;40756;-37.950;145.008;2023-04-01T04:05:48;101741.85;;;17.42;36.87
54870;BME280;40756;-37.950;145.008;2023-04-01T04:08:19;101741.22;;;17.05;37.42
54870;BME280;40756;-37.950;145.008;2023-04-01T04:10:51;101741.37;;;17.00;37.92
54870;BME280;40756;-37.950;145.008;2023-04-01T04:13:23;101751.36;;;15.93;40.40
54870;BME280;40756;-37.950;145.008;2023-04-01T04:15:53;101750.72;;;16.37;38.28
54870;BME280;40756;-37.950;145.008;2023-04-01T04:18:22;101758.99;;;16.08;39.42
54870;BME280;40756;-37.950;145.008;2023-04-01T04:20:52;101759.19;;;16.81;38.96
54870;BME280;40756;-37.950;145.008;2023-04-01T04:23:23;101768.73;;;15.48;40.14
54870;BME280;40756;-37.950;145.008;2023-04-01T04:25:57;101764.87;;;16.04;38.84
54870;BME280;40756;-37.950;145.008;2023-04-01T04:28:27;101767.88;;;15.51;39.19
54870;BME280;40756;-37.950;145.008;2023-04-01T04:30:57;101770.77;;;14.59;39.11
54870;BME280;40756;-37.950;145.008;2023-04-01T04:33:27;101769.74;;;13.65;40.22
54870;BME280;40756;-37.950;145.008;2023-04-01T04:35:59;101770.14;;;14.45;40.22
54870;BME280;40756;-37.950;145.008;2023-04-01T04:38:29;101769.10;;;15.20;40.08
54870;BME280;40756;-37.950;145.008;2023-04-01T04:40:59;101769.37;;;15.50;39.15
54870;BME280;40756;-37.950;145.008;2023-04-01T04:43:29;101763.46;;;15.83;39.23
54870;BME280;40756;-37.950;145.008;2023-04-01T04:45:58;101759.19;;;14.71;40.52
54870;BME280;40756;-37.950;145.008;2023-04-01T04:48:28;101754.72;;;15.11;40.64
54870;BME280;40756;-37.950;145.008;2023-04-01T04:50:57;101748.55;;;15.68;39.11
54870;BME280;40756;-37.950;145.008;2023-04-01T04:53:27;101743.86;;;16.84;39.31
54870;BME280;40756;-37.950;145.008;2023-04-01T04:55:57;101746.00;;;15.65;37.34
54870;BME280;40756;-37.950;145.008;2023-04-01T04:58:26;101743.94;;;15.72;37.55
54870;BME280;40756;-37.950;145.008;2023-04-01T05:00:56;101735.25;;;16.25;35.31
54870;BME280;40756;-37.950;145.008;2023-04-01T05:03:25;101727.07;;;17.09;35.37
54870;BME280;40756;-37.950;145.008;2023-04-01T05:05:55;101726.90;;;16.65;35.11
54870;BME280;40756;-37.950;145.008;2023-04-01T05:08:24;101735.23;;;16.28;36.74
54870;BME280;40756;-37.950;145.008;2023-04-01T05:10:54;101740.42;;;16.18;36.83
54870;BME280;40756;-37.950;145.008;2023-04-01T05:13:23;101740.38;;;15.49;37.93
54870;BME280;40756;-37.950;145.008;2023-04-01T05:15:53;101742.92;;;16.27;37.71
54870;BME280;40756;-37.950;145.008;2023-04-01T05:18:23;101746.10;;;16.01;38.15
54870;BME280;40756;-37.950;145.008;2023-04-01T05:20:53;101744.79;;;15.79;39.18
54870;BME280;40756;-37.950;145.008;2023-04-01T05:23:24;101741.65;;;16.36;38.65
54870;BME280;40756;-37.950;145.008;2023-04-01T05:25:54;101744.49;;;17.33;38.02
54870;BME280;40756;-37.950;145.008;2023-04-01T05:28:24;101741.56;;;17.18;36.52
54870;BME280;40756;-37.950;145.008;2023-04-01T05:30:53;101741.97;;;16.86;37.61
54870;BME280;40756;-37.950;145.008;2023-04-01T05:33:22;101747.46;;;15.60;36.99
54870;BME280;40756;-37.950;145.008;2023-04-01T05:35:52;101749.55;;;15.87;37.42
54870;BME280;40756;-37.950;145.008;2023-04-01T05:38:22;101745.23;;;15.51;37.72
54870;BME280;40756;-37.950;145.008;2023-04-01T05:40:52;101746.53;;;16.02;37.19
54870;BME280;40756;-37.950;145.008;2023-04-01T05:43:27;101747.34;;;16.23;37.57
54870;BME280;40756;-37.950;145.008;2023-04-01T05:45:57;101745.07;;;16.27;38.24
54870;BME280;40756;-37.950;145.008;2023-04-01T05:48:26;101745.82;;;16.61;37.88
54870;BME280;40756;-37.950;145.008;2023-04-01T05:50:56;101752.92;;;16.31;38.54
54870;BME280;40756;-37.950;145.008;2023-04-01T05:53:26;101748.35;;;15.85;38.05
54870;BME280;40756;-37.950;145.008;2023-04-01T05:55:55;101746.42;;;16.34;37.57
54870;BME280;40756;-37.950;145.008;2023-04-01T05:58:25;101747.82;;;16.67;37.22
54870;BME280;40756;-37.950;145.008;2023-04-01T06:01:01;101748.15;;;16.51;37.44
54870;BME280;40756;-37.950;145.008;2023-04-01T06:03:31;101753.39;;;15.97;38.28
54870;BME280;40756;-37.950;145.008;2023-04-01T06:06:02;101753.01;;;15.83;38.16
54870;BME280;40756;-37.950;145.008;2023-04-01T06:08:32;101751.83;;;16.36;36.72
54870;BME280;40756;-37.950;145.008;2023-04-01T06:11:14;101749.88;;;15.73;38.60
54870;BME280;40756;-37.950;145.008;2023-04-01T06:14:03;101756.35;;;15.30;38.20
54870;BME280;40756;-37.950;145.008;2023-04-01T06:16:42;101753.49;;;16.10;39.88
54870;BME280;40756;-37.950;145.008;2023-04-01T06:19:28;101752.83;;;16.08;41.61
54870;BME280;40756;-37.950;145.008;2023-04-01T06:22:19;101750.71;;;16.62;38.48
54870;BME280;40756;-37.950;145.008;2023-04-01T06:25:24;101752.53;;;15.67;37.65
54870;BME280;40756;-37.950;145.008;2023-04-01T06:28:16;101756.49;;;16.35;36.40
54870;BME280;40756;-37.950;145.008;2023-04-01T06:30:57;101754.26;;;16.57;39.20
54870;BME280;40756;-37.950;145.008;2023-04-01T06:33:41;101748.69;;;16.91;36.15
54870;BME280;40756;-37.950;145.008;2023-04-01T06:36:31;101749.47;;;16.56;36.31
54870;BME280;40756;-37.950;145.008;2023-04-01T06:39:19;101751.10;;;16.99;35.49
54870;BME280;40756;-37.950;145.008;2023-04-01T06:42:08;101754.65;;;16.12;36.36
54870;BME280;40756;-37.950;145.008;2023-04-01T06:44:47;101751.99;;;16.18;36.38
54870;BME280;40756;-37.950;145.008;2023-04-01T06:47:33;101750.67;;;15.41;36.62
54870;BME280;40756;-37.950;145.008;2023-04-01T06:50:15;101751.05;;;16.26;38.54
54870;BME280;40756;-37.950;145.008;2023-04-01T06:52:53;101751.33;;;15.74;36.66
54870;BME280;40756;-37.950;145.008;2023-04-01T06:55:29;101746.28;;;15.58;37.29
54870;BME280;40756;-37.950;145.008;2023-04-01T06:58:04;101748.62;;;16.06;36.74
54870;BME280;40756;-37.950;145.008;2023-04-01T07:00:39;101753.42;;;15.82;37.15
54870;BME280;40756;-37.950;145.008;2023-04-01T07:03:21;101755.86;;;15.76;37.16
54870;BME280;40756;-37.950;145.008;2023-04-01T07:05:53;101758.13;;;16.47;35.32
54870;BME280;40756;-37.950;145.008;2023-04-01T07:08:25;101760.31;;;15.78;36.27
54870;BME280;40756;-37.950;145.008;2023-04-01T07:11:01;101759.82;;;15.25;37.18
54870;BME280;40756;-37.950;145.008;2023-04-01T07:13:34;101760.93;;;14.99;37.78
54870;BME280;40756;-37.950;145.008;2023-04-01T07:16:12;101761.30;;;16.03;36.99
54870;BME280;40756;-37.950;145.008;2023-04-01T07:18:47;101762.31;;;15.93;37.07
54870;BME280;40756;-37.950;145.008;2023-04-01T07:21:25;101764.24;;;16.20;36.75
54870;BME280;40756;-37.950;145.008;2023-04-01T07:24:00;101769.24;;;14.77;38.68
54870;BME280;40756;-37.950;145.008;2023-04-01T07:26:33;101776.56;;;15.51;37.76
54870;BME280;40756;-37.950;145.008;2023-04-01T07:29:09;101773.56;;;15.26;37.64
54870;BME280;40756;-37.950;145.008;2023-04-01T07:31:52;101773.08;;;15.30;37.87
54870;BME280;40756;-37.950;145.008;2023-04-01T07:34:29;101776.79;;;15.79;37.60
54870;BME280;40756;-37.950;145.008;2023-04-01T07:37:09;101780.58;;;15.17;38.04
54870;BME280;40756;-37.950;145.008;2023-04-01T07:39:48;101781.58;;;15.52;38.32
54870;BME280;40756;-37.950;145.008;2023-04-01T07:42:30;101784.49;;;14.43;39.56
54870;BME280;40756;-37.950;145.008;2023-04-01T07:45:09;101787.46;;;15.01;39.13
54870;BME280;40756;-37.950;145.008;2023-04-01T07:47:57;101787.04;;;15.40;38.77
54870;BME280;40756;-37.950;145.008;2023-04-01T07:50:35;101790.87;;;15.10;39.35
54870;BME280;40756;-37.950;145.008;2023-04-01T07:53:13;101793.62;;;14.83;39.68
54870;BME280;40756;-37.950;145.008;2023-04-01T07:55:50;101793.56;;;15.35;39.48
54870;BME280;40756;-37.950;145.008;2023-04-01T07:58:29;101795.57;;;14.81;39.92
54870;BME280;40756;-37.950;145.008;2023-04-01T08:01:09;101793.31;;;15.52;39.39
54870;BME280;40756;-37.950;145.008;2023-04-01T08:03:57;101794.89;;;15.32;39.43
54870;BME280;40756;-37.950;145.008;2023-04-01T08:06:35;101797.80;;;15.44;39.65
54870;BME280;40756;-37.950;145.008;2023-04-01T08:09:12;101799.60;;;15.21;40.26
54870;BME280;40756;-37.950;145.008;2023-04-01T08:11:59;101804.86;;;15.59;40.21
54870;BME280;40756;-37.950;145.008;2023-04-01T08:14:36;101810.88;;;14.15;41.24
54870;BME280;40756;-37.950;145.008;2023-04-01T08:17:18;101810.63;;;14.53;40.20
54870;BME280;40756;-37.950;145.008;2023-04-01T08:20:02;101812.03;;;14.59;39.77
54870;BME280;40756;-37.950;145.008;2023-04-01T08:22:42;101815.32;;;14.43;39.87
54870;BME280;40756;-37.950;145.008;2023-04-01T08:25:18;101820.10;;;14.51;39.97
54870;BME280;40756;-37.950;145.008;2023-04-01T08:27:55;101822.48;;;14.03;40.76
54870;BME280;40756;-37.950;145.008;2023-04-01T08:30:28;101827.39;;;15.21;39.34
54870;BME280;40756;-37.950;145.008;2023-04-01T08:33:11;101831.92;;;14.50;40.34
54870;BME280;40756;-37.950;145.008;2023-04-01T08:35:47;101830.30;;;15.17;39.65
54870;BME280;40756;-37.950;145.008;2023-04-01T08:38:23;101831.22;;;15.59;39.21
54870;BME280;40756;-37.950;145.008;2023-04-01T08:41:15;101832.13;;;15.75;38.77
54870;BME280;40756;-37.950;145.008;2023-04-01T08:45:56;101836.60;;;15.76;40.33
54870;BME280;40756;-37.950;145.008;2023-04-01T08:48:40;101840.36;;;15.24;40.70
54870;BME280;40756;-37.950;145.008;2023-04-01T08:52:34;101843.24;;;13.97;41.56
54870;BME280;40756;-37.950;145.008;2023-04-01T08:55:39;101850.93;;;14.57;40.74
54870;BME280;40756;-37.950;145.008;2023-04-01T08:59:28;101854.25;;;14.90;40.27
54870;BME280;40756;-37.950;145.008;2023-04-01T09:02:25;101855.04;;;15.10;40.38
54870;BME280;40756;-37.950;145.008;2023-04-01T09:05:20;101856.37;;;15.35;41.92
54870;BME280;40756;-37.950;145.008;2023-04-01T09:07:57;101863.24;;;14.73;41.38
54870;BME280;40756;-37.950;145.008;2023-04-01T09:10:53;101864.61;;;15.44;40.74
54870;BME280;40756;-37.950;145.008;2023-04-01T09:13:39;101866.40;;;15.57;40.02
54870;BME280;40756;-37.950;145.008;2023-04-01T09:16:44;101863.35;;;15.53;40.86
54870;BME280;40756;-37.950;145.008;2023-04-01T09:19:26;101865.17;;;15.72;41.11
54870;BME280;40756;-37.950;145.008;2023-04-01T09:22:17;101868.74;;;16.04;38.54
54870;BME280;40756;-37.950;145.008;2023-04-01T09:25:21;101870.41;;;15.50;38.37
54870;BME280;40756;-37.950;145.008;2023-04-01T09:28:00;101871.45;;;15.87;37.74
54870;BME280;40756;-37.950;145.008;2023-04-01T09:30:59;101877.23;;;16.06;37.61
54870;BME280;40756;-37.950;145.008;2023-04-01T09:34:31;101879.18;;;16.00;37.41
54870;BME280;40756;-37.950;145.008;2023-04-01T09:37:20;101882.28;;;16.02;37.99
54870;BME280;40756;-37.950;145.008;2023-04-01T09:40:28;101887.86;;;15.85;37.96
54870;BME280;40756;-37.950;145.008;2023-04-01T09:44:14;101891.35;;;15.31;38.14
54870;BME280;40756;-37.950;145.008;2023-04-01T09:47:00;101893.43;;;15.64;38.52
54870;BME280;40756;-37.950;145.008;2023-04-01T09:49:55;101899.30;;;14.78;39.07
54870;BME280;40756;-37.950;145.008;2023-04-01T09:52:32;101900.39;;;15.48;38.91
54870;BME280;40756;-37.950;145.008;2023-04-01T09:55:21;101902.72;;;15.40;39.10
54870;BME280;40756;-37.950;145.008;2023-04-01T09:58:16;101904.13;;;15.79;38.30
54870;BME280;40756;-37.950;145.008;2023-04-01T10:01:10;101907.99;;;15.51;38.47
54870;BME280;40756;-37.950;145.008;2023-04-01T10:07:01;101913.64;;;15.35;39.60
54870;BME280;40756;-37.950;145.008;2023-04-01T10:11:08;101918.32;;;15.12;39.19
54870;BME280;40756;-37.950;145.008;2023-04-01T10:17:50;101920.48;;;15.81;39.30
54870;BME280;40756;-37.950;145.008;2023-04-01T10:23:19;101917.42;;;15.10;40.61
54870;BME280;40756;-37.950;145.008;2023-04-01T10:27:28;101922.22;;;15.96;39.42
54870;BME280;40756;-37.950;145.008;2023-04-01T10:33:02;101922.33;;;15.68;40.15
54870;BME280;40756;-37.950;145.008;2023-04-01T10:36:05;101926.08;;;15.25;39.95
54870;BME280;40756;-37.950;145.008;2023-04-01T10:38:58;101924.93;;;15.48;39.92
54870;BME280;40756;-37.950;145.008;2023-04-01T10:44:28;101924.83;;;15.90;39.94
54870;BME280;40756;-37.950;145.008;2023-04-01T10:49:47;101933.28;;;15.80;40.06
54870;BME280;40756;-37.950;145.008;2023-04-01T10:54:46;101926.30;;;15.57;39.73
54870;BME280;40756;-37.950;145.008;2023-04-01T10:58:53;101926.43;;;15.36;39.88
54870;BME280;40756;-37.950;145.008;2023-04-01T11:02:01;101932.46;;;15.16;39.70
54870;BME280;40756;-37.950;145.008;2023-04-01T11:04:58;101931.20;;;15.52;39.56
54870;BME280;40756;-37.950;145.008;2023-04-01T11:08:15;101929.57;;;15.70;39.95
54870;BME280;40756;-37.950;145.008;2023-04-01T11:14:38;101931.80;;;16.16;39.47
54870;BME280;40756;-37.950;145.008;2023-04-01T11:17:50;101937.21;;;15.43;40.10
54870;BME280;40756;-37.950;145.008;2023-04-01T11:20:49;101936.39;;;15.34;39.93
54870;BME280;40756;-37.950;145.008;2023-04-01T11:23:45;101937.65;;;15.68;40.18
54870;BME280;40756;-37.950;145.008;2023-04-01T11:26:27;101940.56;;;15.47;40.10
54870;BME280;40756;-37.950;145.008;2023-04-01T11:30:02;101942.63;;;15.45;40.18
54870;BME280;40756;-37.950;145.008;2023-04-01T11:32:48;101943.98;;;14.92;40.02
54870;BME280;40756;-37.950;145.008;2023-04-01T11:35:38;101942.60;;;15.42;39.96
54870;BME280;40756;-37.950;145.008;2023-04-01T11:40:29;101944.32;;;16.01;40.10
54870;BME280;40756;-37.950;145.008;2023-04-01T11:43:11;101942.29;;;15.65;40.03
54870;BME280;40756;-37.950;145.008;2023-04-01T11:45:48;101939.18;;;15.99;39.91
54870;BME280;40756;-37.950;145.008;2023-04-01T11:48:33;101935.60;;;15.75;39.77
54870;BME280;40756;-37.950;145.008;2023-04-01T11:51:20;101936.11;;;15.38;40.11
54870;BME280;40756;-37.950;145.008;2023-04-01T11:54:01;101934.15;;;15.42;40.24
54870;BME280;40756;-37.950;145.008;2023-04-01T11:56:53;101932.90;;;15.59;40.49
54870;BME280;40756;-37.950;145.008;2023-04-01T11:59:45;101929.67;;;15.74;40.50
54870;BME280;40756;-37.950;145.008;2023-04-01T12:02:23;101926.50;;;15.41;40.84
54870;BME280;40756;-37.950;145.008;2023-04-01T12:05:11;101927.07;;;15.61;40.60
54870;BME280;40756;-37.950;145.008;2023-04-01T12:08:04;101928.91;;;15.52;41.18
54870;BME280;40756;-37.950;145.008;2023-04-01T12:10:44;101927.70;;;15.24;41.09
54870;BME280;40756;-37.950;145.008;2023-04-01T12:13:26;101927.89;;;15.24;40.94
54870;BME280;40756;-37.950;145.008;2023-04-01T12:16:11;101927.39;;;15.13;41.10
54870;BME280;40756;-37.950;145.008;2023-04-01T12:18:50;101928.20;;;15.13;41.25
54870;BME280;40756;-37.950;145.008;2023-04-01T12:21:27;101928.51;;;15.07;41.13
54870;BME280;40756;-37.950;145.008;2023-04-01T12:24:32;101923.85;;;15.09;41.54
54870;BME280;40756;-37.950;145.008;2023-04-01T12:27:34;101920.15;;;15.19;41.44
54870;BME280;40756;-37.950;145.008;2023-04-01T12:30:20;101917.57;;;15.25;41.39
54870;BME280;40756;-37.950;145.008;2023-04-01T12:33:08;101917.55;;;14.89;41.19
54870;BME280;40756;-37.950;145.008;2023-04-01T12:35:53;101917.35;;;14.78;41.76
54870;BME280;40756;-37.950;145.008;2023-04-01T12:38:35;101914.54;;;14.68;42.02
54870;BME280;40756;-37.950;145.008;2023-04-01T12:41:11;101913.99;;;14.70;42.48
54870;BME280;40756;-37.950;145.008;2023-04-01T12:44:31;101914.52;;;14.49;42.74
54870;BME280;40756;-37.950;145.008;2023-04-01T12:47:50;101912.16;;;14.44;42.94
54870;BME280;40756;-37.950;145.008;2023-04-01T12:50:33;101913.00;;;14.02;43.74
54870;BME280;40756;-37.950;145.008;2023-04-01T12:53:16;101911.64;;;14.11;44.23
54870;BME280;40756;-37.950;145.008;2023-04-01T12:55:52;101913.38;;;13.84;43.95
54870;BME280;40756;-37.950;145.008;2023-04-01T12:59:07;101912.46;;;14.27;44.29
54870;BME280;40756;-37.950;145.008;2023-04-01T13:01:59;101911.25;;;14.04;44.69
54870;BME280;40756;-37.950;145.008;2023-04-01T13:06:52;101910.69;;;14.32;44.96
54870;BME280;40756;-37.950;145.008;2023-04-01T13:09:35;101906.61;;;13.68;45.40
54870;BME280;40756;-37.950;145.008;2023-04-01T13:12:23;101906.87;;;13.96;44.89
54870;BME280;40756;-37.950;145.008;2023-04-01T13:15:11;101904.29;;;14.06;45.03
54870;BME280;40756;-37.950;145.008;2023-04-01T13:17:49;101902.46;;;13.99;44.98
54870;BME280;40756;-37.950;145.008;2023-04-01T13:20:33;101900.77;;;14.06;44.86
54870;BME280;40756;-37.950;145.008;2023-04-01T13:23:17;101899.59;;;14.10;44.80
54870;BME280;40756;-37.950;145.008;2023-04-01T13:25:54;101896.86;;;14.15;44.55
54870;BME280;40756;-37.950;145.008;2023-04-01T13:28:34;101895.63;;;14.20;44.50
54870;BME280;40756;-37.950;145.008;2023-04-01T13:31:14;101894.24;;;14.23;44.34
54870;BME280;40756;-37.950;145.008;2023-04-01T13:33:57;101893.51;;;13.82;44.32
54870;BME280;40756;-37.950;145.008;2023-04-01T13:36:38;101893.95;;;14.44;44.24
54870;BME280;40756;-37.950;145.008;2023-04-01T13:39:22;101892.01;;;13.96;44.00
54870;BME280;40756;-37.950;145.008;2023-04-01T13:42:18;101889.35;;;14.11;44.17
54870;BME280;40756;-37.950;145.008;2023-04-01T13:44:54;101884.39;;;14.05;43.94
54870;BME280;40756;-37.950;145.008;2023-04-01T13:47:47;101884.70;;;14.28;44.13
54870;BME280;40756;-37.950;145.008;2023-04-01T13:50:34;101884.87;;;14.22;44.44
54870;BME280;40756;-37.950;145.008;2023-04-01T13:53:25;101887.64;;;13.85;44.59
54870;BME280;40756;-37.950;145.008;2023-04-01T13:56:14;101888.71;;;13.63;45.29
54870;BME280;40756;-37.950;145.008;2023-04-01T13:59:00;101888.28;;;13.37;45.65
54870;BME280;40756;-37.950;145.008;2023-04-01T14:01:38;101891.07;;;13.17;45.99